sensor_id;sensor_type;location;lat;lon;timestamp;temperature;humidity
72905;DHT22;61048;52.162;4.516;2023-10-09T00:02:13;19.50;70.10
72905;DHT22;61048;52.162;4.516;2023-10-09T00:04:41;19.50;70.20
72905;DHT22;61048;52.162;4.516;2023-10-09T00:07:11;19.50;70.30
72905;DHT22;61048;52.162;4.516;2023-10-09T00:09:38;19.50;70.30
72905;DHT22;61048;52.162;4.516;2023-10-09T00:12:18;19.50;70.30
72905;DHT22;61048;52.162;4.516;2023-10-09T00:14:48;19.50;70.40
72905;DHT22;61048;52.162;4.516;2023-10-09T00:17:16;19.50;70.40
72905;DHT22;61048;52.162;4.516;2023-10-09T00:19:44;19.50;70.30
72905;DHT22;61048;52.162;4.516;2023-10-09T00:22:12;19.50;70.40
72905;DHT22;61048;52.162;4.516;2023-10-09T00:24:51;19.50;70.40
72905;DHT22;61048;52.162;4.516;2023-10-09T00:27:37;19.50;70.40
72905;DHT22;61048;52.162;4.516;2023-10-09T00:30:08;19.50;70.50
72905;DHT22;61048;52.162;4.516;2023-10-09T00:32:37;19.50;70.50
72905;DHT22;61048;52.162;4.516;2023-10-09T00:35:17;19.60;70.60
72905;DHT22;61048;52.162;4.516;2023-10-09T00:38:04;19.50;70.40
72905;DHT22;61048;52.162;4.516;2023-10-09T00:40:40;19.50;70.40
72905;DHT22;61048;52.162;4.516;2023-10-09T00:43:14;19.50;70.50
72905;DHT22;61048;52.162;4.516;2023-10-09T00:45:41;19.50;70.50
72905;DHT22;61048;52.162;4.516;2023-10-09T00:48:10;19.60;70.60
72905;DHT22;61048;52.162;4.516;2023-10-09T00:50:40;19.60;70.50
72905;DHT22;61048;52.162;4.516;2023-10-09T00:53:17;19.50;70.60
72905;DHT22;61048;52.162;4.516;2023-10-09T00:55:56;19.60;70.60
72905;DHT22;61048;52.162;4.516;2023-10-09T00:58:25;19.60;70.60
72905;DHT22;61048;52.162;4.516;2023-10-09T01:00:56;19.60;70.60
72905;DHT22;61048;52.162;4.516;2023-10-09T01:03:25;19.60;70.70
72905;DHT22;61048;52.162;4.516;2023-10-09T01:05:55;19.60;70.60
72905;DHT22;61048;52.162;4.516;2023-10-09T01:08:42;19.60;70.70
72905;DHT22;61048;52.162;4.516;2023-10-09T01:11:14;19.60;70.70
72905;DHT22;61048;52.162;4.516;2023-10-09T01:13:46;19.60;70.70
72905;DHT22;61048;52.162;4.516;2023-10-09T01:16:21;19.60;70.70
72905;DHT22;61048;52.162;4.516;2023-10-09T01:18:49;19.60;70.80
72905;DHT22;61048;52.162;4.516;2023-10-09T01:21:16;19.60;70.80
72905;DHT22;61048;52.162;4.516;2023-10-09T01:23:48;19.60;70.70
72905;DHT22;61048;52.162;4.516;2023-10-09T01:26:29;19.60;70.80
72905;DHT22;61048;52.162;4.516;2023-10-09T01:28:58;19.60;70.90
72905;DHT22;61048;52.162;4.516;2023-10-09T01:31:25;19.60;70.80
72905;DHT22;61048;52.162;4.516;2023-10-09T01:33:53;19.60;70.90
72905;DHT22;61048;52.162;4.516;2023-10-09T01:36:25;19.60;70.90
72905;DHT22;61048;52.162;4.516;2023-10-09T01:38:59;19.60;70.90
72905;DHT22;61048;52.162;4.516;2023-10-09T01:41:26;19.60;71.00
72905;DHT22;61048;52.162;4.516;2023-10-09T01:43:53;19.60;71.00
72905;DHT22;61048;52.162;4.516;2023-10-09T01:46:26;19.60;71.00
72905;DHT22;61048;52.162;4.516;2023-10-09T01:48:53;19.60;71.00
72905;DHT22;61048;52.162;4.516;2023-10-09T01:51:20;19.60;71.00
72905;DHT22;61048;52.162;4.516;2023-10-09T01:53:47;19.60;71.00
72905;DHT22;61048;52.162;4.516;2023-10-09T01:56:21;19.60;71.00
72905;DHT22;61048;52.162;4.516;2023-10-09T01:58:48;19.60;71.00
72905;DHT22;61048;52.162;4.516;2023-10-09T02:01:16;19.60;71.00
72905;DHT22;61048;52.162;4.516;2023-10-09T02:03:43;19.60;71.00
72905;DHT22;61048;52.162;4.516;2023-10-09T02:06:10;19.60;71.10
72905;DHT22;61048;52.162;4.516;2023-10-09T02:09:00;19.60;71.10
72905;DHT22;61048;52.162;4.516;2023-10-09T02:11:28;19.60;71.10
72905;DHT22;61048;52.162;4.516;2023-10-09T02:14:07;19.60;71.10
72905;DHT22;61048;52.162;4.516;2023-10-09T02:16:45;19.60;71.10
72905;DHT22;61048;52.162;4.516;2023-10-09T02:19:28;19.60;71.20
72905;DHT22;61048;52.162;4.516;2023-10-09T02:22:00;19.70;71.20
72905;DHT22;61048;52.162;4.516;2023-10-09T02:24:28;19.70;71.30
72905;DHT22;61048;52.162;4.516;2023-10-09T02:27:17;19.60;71.30
72905;DHT22;61048;52.162;4.516;2023-10-09T02:30:07;19.70;71.20
72905;DHT22;61048;52.162;4.516;2023-10-09T02:32:51;19.60;71.30
72905;DHT22;61048;52.162;4.516;2023-10-09T02:35:19;19.70;71.30
72905;DHT22;61048;52.162;4.516;2023-10-09T02:37:47;19.70;71.30
72905;DHT22;61048;52.162;4.516;2023-10-09T02:40:14;19.70;71.30
72905;DHT22;61048;52.162;4.516;2023-10-09T02:42:51;19.70;71.30
72905;DHT22;61048;52.162;4.516;2023-10-09T02:45:18;19.70;71.20
72905;DHT22;61048;52.162;4.516;2023-10-09T02:47:45;19.70;71.30
72905;DHT22;61048;52.162;4.516;2023-10-09T02:50:15;19.70;71.20
72905;DHT22;61048;52.162;4.516;2023-10-09T02:52:53;19.70;71.30
72905;DHT22;61048;52.162;4.516;2023-10-09T02:55:25;19.70;71.30
72905;DHT22;61048;52.162;4.516;2023-10-09T02:57:54;19.70;71.40
72905;DHT22;61048;52.162;4.516;2023-10-09T03:00:31;19.70;71.30
72905;DHT22;61048;52.162;4.516;2023-10-09T03:03:04;19.70;71.30
72905;DHT22;61048;52.162;4.516;2023-10-09T03:05:33;19.70;71.30
72905;DHT22;61048;52.162;4.516;2023-10-09T03:08:00;19.70;71.30
72905;DHT22;61048;52.162;4.516;2023-10-09T03:10:27;19.70;71.20
72905;DHT22;61048;52.162;4.516;2023-10-09T03:12:56;19.70;71.20
72905;DHT22;61048;52.162;4.516;2023-10-09T03:15:27;19.70;71.20
72905;DHT22;61048;52.162;4.516;2023-10-09T03:18:01;19.70;71.30
72905;DHT22;61048;52.162;4.516;2023-10-09T03:20:30;19.70;71.30
72905;DHT22;61048;52.162;4.516;2023-10-09T03:22:57;19.70;71.20
72905;DHT22;61048;52.162;4.516;2023-10-09T03:25:26;19.70;71.20
72905;DHT22;61048;52.162;4.516;2023-10-09T03:27:53;19.70;71.10
72905;DHT22;61048;52.162;4.516;2023-10-09T03:30:23;19.70;71.10
72905;DHT22;61048;52.162;4.516;2023-10-09T03:32:50;19.70;71.10
72905;DHT22;61048;52.162;4.516;2023-10-09T03:35:17;19.70;71.00
72905;DHT22;61048;52.162;4.516;2023-10-09T03:37:54;19.70;71.10
72905;DHT22;61048;52.162;4.516;2023-10-09T03:40:23;19.70;71.00
72905;DHT22;61048;52.162;4.516;2023-10-09T03:42:50;19.70;71.00
72905;DHT22;61048;52.162;4.516;2023-10-09T03:45:18;19.70;71.10
72905;DHT22;61048;52.162;4.516;2023-10-09T03:47:53;19.70;71.00
72905;DHT22;61048;52.162;4.516;2023-10-09T03:50:28;19.70;71.10
72905;DHT22;61048;52.162;4.516;2023-10-09T03:53:04;19.70;71.10
72905;DHT22;61048;52.162;4.516;2023-10-09T03:55:38;19.70;71.20
72905;DHT22;61048;52.162;4.516;2023-10-09T03:58:05;19.70;71.20
72905;DHT22;61048;52.162;4.516;2023-10-09T04:00:32;19.70;71.20
72905;DHT22;61048;52.162;4.516;2023-10-09T04:03:12;19.70;71.20
72905;DHT22;61048;52.162;4.516;2023-10-09T04:05:40;19.70;71.20
72905;DHT22;61048;52.162;4.516;2023-10-09T04:08:09;19.80;71.20
72905;DHT22;61048;52.162;4.516;2023-10-09T04:10:39;19.70;71.20
72905;DHT22;61048;52.162;4.516;2023-10-09T04:13:19;19.80;71.20
72905;DHT22;61048;52.162;4.516;2023-10-09T04:15:50;19.80;71.20
72905;DHT22;61048;52.162;4.516;2023-10-09T04:18:21;19.70;71.20
72905;DHT22;61048;52.162;4.516;2023-10-09T04:20:56;19.80;71.20
72905;DHT22;61048;52.162;4.516;2023-10-09T04:23:45;19.80;71.30
72905;DHT22;61048;52.162;4.516;2023-10-09T04:26:35;19.80;71.30
72905;DHT22;61048;52.162;4.516;2023-10-09T04:29:03;19.80;71.30
72905;DHT22;61048;52.162;4.516;2023-10-09T04:31:32;19.80;71.30
72905;DHT22;61048;52.162;4.516;2023-10-09T04:34:04;19.80;71.30
72905;DHT22;61048;52.162;4.516;2023-10-09T04:36:55;19.80;71.30
72905;DHT22;61048;52.162;4.516;2023-10-09T04:39:26;19.80;71.40
72905;DHT22;61048;52.162;4.516;2023-10-09T04:42:11;19.80;71.40
72905;DHT22;61048;52.162;4.516;2023-10-09T04:45:04;19.80;71.30
72905;DHT22;61048;52.162;4.516;2023-10-09T04:48:06;19.80;71.30
72905;DHT22;61048;52.162;4.516;2023-10-09T04:50:36;19.80;71.30
72905;DHT22;61048;52.162;4.516;2023-10-09T04:53:11;19.80;71.30
72905;DHT22;61048;52.162;4.516;2023-10-09T04:55:54;19.80;71.30
72905;DHT22;61048;52.162;4.516;2023-10-09T04:58:19;19.80;72.20
72905;DHT22;61048;52.162;4.516;2023-10-09T05:00:54;19.90;72.80
72905;DHT22;61048;52.162;4.516;2023-10-09T05:03:41;19.90;72.70
72905;DHT22;61048;52.162;4.516;2023-10-09T05:06:13;19.90;73.20
72905;DHT22;61048;52.162;4.516;2023-10-09T05:09:09;19.90;73.00
72905;DHT22;61048;52.162;4.516;2023-10-09T05:11:38;19.90;73.20
72905;DHT22;61048;52.162;4.516;2023-10-09T05:14:25;19.90;73.60
72905;DHT22;61048;52.162;4.516;2023-10-09T05:17:05;19.90;73.30
72905;DHT22;61048;52.162;4.516;2023-10-09T05:19:32;19.90;73.20
72905;DHT22;61048;52.162;4.516;2023-10-09T05:22:26;19.90;73.20
72905;DHT22;61048;52.162;4.516;2023-10-09T05:25:05;19.90;73.10
72905;DHT22;61048;52.162;4.516;2023-10-09T05:27:56;19.90;73.20
72905;DHT22;61048;52.162;4.516;2023-10-09T05:30:42;19.90;73.10
72905;DHT22;61048;52.162;4.516;2023-10-09T05:33:08;19.90;73.10
72905;DHT22;61048;52.162;4.516;2023-10-09T05:35:52;19.90;72.90
72905;DHT22;61048;52.162;4.516;2023-10-09T05:38:44;19.90;72.80
72905;DHT22;61048;52.162;4.516;2023-10-09T05:41:24;19.90;72.90
72905;DHT22;61048;52.162;4.516;2023-10-09T05:44:08;19.90;72.90
72905;DHT22;61048;52.162;4.516;2023-10-09T05:46:53;19.90;72.70
72905;DHT22;61048;52.162;4.516;2023-10-09T05:49:48;19.90;72.50
72905;DHT22;61048;52.162;4.516;2023-10-09T05:52:32;19.90;72.30
72905;DHT22;61048;52.162;4.516;2023-10-09T05:55:20;19.90;72.20
72905;DHT22;61048;52.162;4.516;2023-10-09T05:58:01;19.90;72.10
72905;DHT22;61048;52.162;4.516;2023-10-09T06:00:46;19.90;73.00
72905;DHT22;61048;52.162;4.516;2023-10-09T06:03:30;19.90;72.90
72905;DHT22;61048;52.162;4.516;2023-10-09T06:06:36;19.90;73.10
72905;DHT22;61048;52.162;4.516;2023-10-09T06:09:11;19.90;73.30
72905;DHT22;61048;52.162;4.516;2023-10-09T06:12:15;19.90;73.40
72905;DHT22;61048;52.162;4.516;2023-10-09T06:15:00;19.90;73.30
72905;DHT22;61048;52.162;4.516;2023-10-09T06:17:45;19.90;73.70
72905;DHT22;61048;52.162;4.516;2023-10-09T06:20:16;20.00;73.80
72905;DHT22;61048;52.162;4.516;2023-10-09T06:23:02;19.90;73.60
72905;DHT22;61048;52.162;4.516;2023-10-09T06:25:42;20.00;73.30
72905;DHT22;61048;52.162;4.516;2023-10-09T06:28:17;19.90;73.50
72905;DHT22;61048;52.162;4.516;2023-10-09T06:30:58;19.90;73.60
72905;DHT22;61048;52.162;4.516;2023-10-09T06:33:42;19.90;73.40
72905;DHT22;61048;52.162;4.516;2023-10-09T06:36:28;19.90;73.20
72905;DHT22;61048;52.162;4.516;2023-10-09T06:38:58;19.90;73.30
72905;DHT22;61048;52.162;4.516;2023-10-09T06:41:54;19.90;73.40
72905;DHT22;61048;52.162;4.516;2023-10-09T06:44:34;19.90;73.20
72905;DHT22;61048;52.162;4.516;2023-10-09T06:47:15;19.90;73.20
72905;DHT22;61048;52.162;4.516;2023-10-09T06:49:44;19.90;73.10
72905;DHT22;61048;52.162;4.516;2023-10-09T06:52:30;19.90;73.10
72905;DHT22;61048;52.162;4.516;2023-10-09T06:55:13;19.90;73.10
72905;DHT22;61048;52.162;4.516;2023-10-09T06:57:45;19.90;73.20
72905;DHT22;61048;52.162;4.516;2023-10-09T07:00:15;19.90;73.20
72905;DHT22;61048;52.162;4.516;2023-10-09T07:02:56;19.90;73.00
72905;DHT22;61048;52.162;4.516;2023-10-09T07:05:23;19.90;72.90
72905;DHT22;61048;52.162;4.516;2023-10-09T07:07:57;19.90;73.00
72905;DHT22;61048;52.162;4.516;2023-10-09T07:10:44;19.90;73.00
72905;DHT22;61048;52.162;4.516;2023-10-09T07:13:28;19.90;73.10
72905;DHT22;61048;52.162;4.516;2023-10-09T07:15:54;19.90;73.00
72905;DHT22;61048;52.162;4.516;2023-10-09T07:18:38;19.90;72.90
72905;DHT22;61048;52.162;4.516;2023-10-09T07:21:15;19.90;72.90
72905;DHT22;61048;52.162;4.516;2023-10-09T07:23:54;19.90;72.80
72905;DHT22;61048;52.162;4.516;2023-10-09T07:26:23;19.90;72.70
72905;DHT22;61048;52.162;4.516;2023-10-09T07:29:03;19.90;72.50
72905;DHT22;61048;52.162;4.516;2023-10-09T07:31:42;19.90;72.70
72905;DHT22;61048;52.162;4.516;2023-10-09T07:34:11;19.90;72.60
72905;DHT22;61048;52.162;4.516;2023-10-09T07:36:56;20.00;72.40
72905;DHT22;61048;52.162;4.516;2023-10-09T07:39:23;20.00;72.50
72905;DHT22;61048;52.162;4.516;2023-10-09T07:42:02;19.90;72.40
72905;DHT22;61048;52.162;4.516;2023-10-09T07:44:45;20.00;72.40
72905;DHT22;61048;52.162;4.516;2023-10-09T07:47:18;20.00;72.30
72905;DHT22;61048;52.162;4.516;2023-10-09T07:50:11;19.90;72.30
72905;DHT22;61048;52.162;4.516;2023-10-09T07:52:46;20.00;72.30
72905;DHT22;61048;52.162;4.516;2023-10-09T07:55:15;20.00;72.30
72905;DHT22;61048;52.162;4.516;2023-10-09T07:57:53;20.00;72.10
72905;DHT22;61048;52.162;4.516;2023-10-09T08:00:20;20.00;72.10
72905;DHT22;61048;52.162;4.516;2023-10-09T08:03:03;20.00;72.10
72905;DHT22;61048;52.162;4.516;2023-10-09T08:05:49;20.00;72.20
72905;DHT22;61048;52.162;4.516;2023-10-09T08:08:18;20.00;72.10
72905;DHT22;61048;52.162;4.516;2023-10-09T08:11:07;20.00;72.00
72905;DHT22;61048;52.162;4.516;2023-10-09T08:13:53;20.00;72.10
72905;DHT22;61048;52.162;4.516;2023-10-09T08:16:26;20.00;72.20
72905;DHT22;61048;52.162;4.516;2023-10-09T08:19:02;20.00;72.20
72905;DHT22;61048;52.162;4.516;2023-10-09T08:21:46;20.00;72.30
72905;DHT22;61048;52.162;4.516;2023-10-09T08:24:32;20.00;72.30
72905;DHT22;61048;52.162;4.516;2023-10-09T08:27:06;20.00;72.50
72905;DHT22;61048;52.162;4.516;2023-10-09T08:29:52;20.10;72.50
72905;DHT22;61048;52.162;4.516;2023-10-09T08:32:38;20.10;72.40
72905;DHT22;61048;52.162;4.516;2023-10-09T08:35:07;20.10;72.40
72905;DHT22;61048;52.162;4.516;2023-10-09T08:37:45;20.10;72.30
72905;DHT22;61048;52.162;4.516;2023-10-09T08:40:16;20.10;72.30
72905;DHT22;61048;52.162;4.516;2023-10-09T08:42:52;20.20;72.20
72905;DHT22;61048;52.162;4.516;2023-10-09T08:45:22;20.20;72.00
72905;DHT22;61048;52.162;4.516;2023-10-09T08:47:53;20.20;72.00
72905;DHT22;61048;52.162;4.516;2023-10-09T08:50:20;20.20;71.90
72905;DHT22;61048;52.162;4.516;2023-10-09T08:52:48;20.20;71.80
72905;DHT22;61048;52.162;4.516;2023-10-09T08:55:17;20.30;71.80
72905;DHT22;61048;52.162;4.516;2023-10-09T08:57:45;20.30;71.70
72905;DHT22;61048;52.162;4.516;2023-10-09T09:00:16;20.30;71.60
72905;DHT22;61048;52.162;4.516;2023-10-09T09:02:48;20.30;71.60
72905;DHT22;61048;52.162;4.516;2023-10-09T09:05:19;20.30;71.50
72905;DHT22;61048;52.162;4.516;2023-10-09T09:07:47;20.30;71.40
72905;DHT22;61048;52.162;4.516;2023-10-09T09:10:15;20.30;71.30
72905;DHT22;61048;52.162;4.516;2023-10-09T09:12:47;20.30;71.30
72905;DHT22;61048;52.162;4.516;2023-10-09T09:15:19;20.30;71.20
72905;DHT22;61048;52.162;4.516;2023-10-09T09:17:48;20.40;71.20
72905;DHT22;61048;52.162;4.516;2023-10-09T09:20:23;20.40;71.20
72905;DHT22;61048;52.162;4.516;2023-10-09T09:22:54;20.40;71.00
72905;DHT22;61048;52.162;4.516;2023-10-09T09:25:22;20.40;71.00
72905;DHT22;61048;52.162;4.516;2023-10-09T09:27:51;20.40;71.00
72905;DHT22;61048;52.162;4.516;2023-10-09T09:30:24;20.40;71.00
72905;DHT22;61048;52.162;4.516;2023-10-09T09:32:53;20.40;70.90
72905;DHT22;61048;52.162;4.516;2023-10-09T09:35:34;20.40;70.90
72905;DHT22;61048;52.162;4.516;2023-10-09T09:38:02;20.40;70.80
72905;DHT22;61048;52.162;4.516;2023-10-09T09:40:31;20.50;70.70
72905;DHT22;61048;52.162;4.516;2023-10-09T09:43:08;20.50;70.70
72905;DHT22;61048;52.162;4.516;2023-10-09T09:45:43;20.50;70.60
72905;DHT22;61048;52.162;4.516;2023-10-09T09:48:13;20.50;70.60
72905;DHT22;61048;52.162;4.516;2023-10-09T09:50:41;20.50;70.60
72905;DHT22;61048;52.162;4.516;2023-10-09T09:53:12;20.50;70.50
72905;DHT22;61048;52.162;4.516;2023-10-09T09:55:45;20.50;70.50
72905;DHT22;61048;52.162;4.516;2023-10-09T09:58:18;20.50;70.50
72905;DHT22;61048;52.162;4.516;2023-10-09T10:00:47;20.50;70.40
72905;DHT22;61048;52.162;4.516;2023-10-09T10:03:24;20.50;70.40
72905;DHT22;61048;52.162;4.516;2023-10-09T10:05:54;20.50;70.30
72905;DHT22;61048;52.162;4.516;2023-10-09T10:08:24;20.50;70.30
72905;DHT22;61048;52.162;4.516;2023-10-09T10:10:58;20.60;70.30
72905;DHT22;61048;52.162;4.516;2023-10-09T10:13:55;20.60;70.20
72905;DHT22;61048;52.162;4.516;2023-10-09T10:16:30;20.60;70.80
72905;DHT22;61048;52.162;4.516;2023-10-09T10:19:03;20.60;70.70
72905;DHT22;61048;52.162;4.516;2023-10-09T10:21:49;20.60;70.80
72905;DHT22;61048;52.162;4.516;2023-10-09T10:24:40;20.60;70.60
72905;DHT22;61048;52.162;4.516;2023-10-09T10:27:21;20.60;70.60
72905;DHT22;61048;52.162;4.516;2023-10-09T10:32:53;20.60;70.30
72905;DHT22;61048;52.162;4.516;2023-10-09T10:35:23;20.60;70.30
72905;DHT22;61048;52.162;4.516;2023-10-09T10:38:22;20.60;70.20
72905;DHT22;61048;52.162;4.516;2023-10-09T10:40:49;20.60;70.20
72905;DHT22;61048;52.162;4.516;2023-10-09T10:43:24;20.60;70.30
72905;DHT22;61048;52.162;4.516;2023-10-09T10:46:02;20.60;70.20
72905;DHT22;61048;52.162;4.516;2023-10-09T10:48:34;20.70;70.20
72905;DHT22;61048;52.162;4.516;2023-10-09T10:51:05;20.70;70.20
72905;DHT22;61048;52.162;4.516;2023-10-09T10:53:37;20.70;70.10
72905;DHT22;61048;52.162;4.516;2023-10-09T10:56:14;20.70;70.20
72905;DHT22;61048;52.162;4.516;2023-10-09T10:58:53;20.70;70.10
72905;DHT22;61048;52.162;4.516;2023-10-09T11:01:38;20.80;70.10
72905;DHT22;61048;52.162;4.516;2023-10-09T11:04:19;20.70;70.00
72905;DHT22;61048;52.162;4.516;2023-10-09T11:07:06;20.80;70.00
72905;DHT22;61048;52.162;4.516;2023-10-09T11:09:44;20.80;70.10
72905;DHT22;61048;52.162;4.516;2023-10-09T11:12:26;20.80;70.00
72905;DHT22;61048;52.162;4.516;2023-10-09T11:15:04;20.80;69.90
72905;DHT22;61048;52.162;4.516;2023-10-09T11:17:59;20.80;70.00
72905;DHT22;61048;52.162;4.516;2023-10-09T11:20:30;20.80;69.90
72905;DHT22;61048;52.162;4.516;2023-10-09T11:23:00;20.80;69.70
72905;DHT22;61048;52.162;4.516;2023-10-09T11:25:42;20.90;69.70
72905;DHT22;61048;52.162;4.516;2023-10-09T11:28:17;20.80;69.70
72905;DHT22;61048;52.162;4.516;2023-10-09T11:30:55;20.90;69.60
72905;DHT22;61048;52.162;4.516;2023-10-09T11:33:21;20.90;69.50
72905;DHT22;61048;52.162;4.516;2023-10-09T11:35:55;20.90;69.50
72905;DHT22;61048;52.162;4.516;2023-10-09T11:38:25;20.90;69.40
72905;DHT22;61048;52.162;4.516;2023-10-09T11:40:51;20.90;69.30
72905;DHT22;61048;52.162;4.516;2023-10-09T11:43:48;20.90;69.20
72905;DHT22;61048;52.162;4.516;2023-10-09T11:46:17;20.90;69.20
72905;DHT22;61048;52.162;4.516;2023-10-09T11:49:05;20.90;69.00
72905;DHT22;61048;52.162;4.516;2023-10-09T11:51:50;20.90;69.10
72905;DHT22;61048;52.162;4.516;2023-10-09T11:54:51;20.90;69.10
72905;DHT22;61048;52.162;4.516;2023-10-09T11:57:22;20.90;69.00
72905;DHT22;61048;52.162;4.516;2023-10-09T11:59:56;20.90;69.00
72905;DHT22;61048;52.162;4.516;2023-10-09T12:02:24;20.90;69.00
72905;DHT22;61048;52.162;4.516;2023-10-09T12:04:51;20.90;68.80
72905;DHT22;61048;52.162;4.516;2023-10-09T12:07:22;20.90;68.80
72905;DHT22;61048;52.162;4.516;2023-10-09T12:09:50;21.00;68.80
72905;DHT22;61048;52.162;4.516;2023-10-09T12:12:21;21.00;68.80
72905;DHT22;61048;52.162;4.516;2023-10-09T12:14:52;20.90;68.70
72905;DHT22;61048;52.162;4.516;2023-10-09T12:17:18;20.90;68.70
72905;DHT22;61048;52.162;4.516;2023-10-09T12:19:50;20.90;68.60
72905;DHT22;61048;52.162;4.516;2023-10-09T12:22:17;20.90;68.60
72905;DHT22;61048;52.162;4.516;2023-10-09T12:24:47;21.00;68.50
72905;DHT22;61048;52.162;4.516;2023-10-09T12:27:15;21.00;68.50
72905;DHT22;61048;52.162;4.516;2023-10-09T12:29:46;21.00;68.50
72905;DHT22;61048;52.162;4.516;2023-10-09T12:32:13;21.00;68.60
72905;DHT22;61048;52.162;4.516;2023-10-09T12:34:45;21.00;68.60
72905;DHT22;61048;52.162;4.516;2023-10-09T12:37:15;21.00;68.60
72905;DHT22;61048;52.162;4.516;2023-10-09T12:39:46;21.00;68.50
72905;DHT22;61048;52.162;4.516;2023-10-09T12:42:15;21.00;68.50
72905;DHT22;61048;52.162;4.516;2023-10-09T12:44:42;21.00;68.50
72905;DHT22;61048;52.162;4.516;2023-10-09T12:47:10;21.00;68.60
72905;DHT22;61048;52.162;4.516;2023-10-09T12:49:37;21.00;68.50
72905;DHT22;61048;52.162;4.516;2023-10-09T12:52:06;21.00;68.40
72905;DHT22;61048;52.162;4.516;2023-10-09T12:54:41;21.00;68.50
72905;DHT22;61048;52.162;4.516;2023-10-09T12:57:09;21.00;68.50
72905;DHT22;61048;52.162;4.516;2023-10-09T12:59:40;21.00;68.40
72905;DHT22;61048;52.162;4.516;2023-10-09T13:02:12;21.00;68.40
72905;DHT22;61048;52.162;4.516;2023-10-09T13:04:39;21.00;68.40
72905;DHT22;61048;52.162;4.516;2023-10-09T13:07:08;21.00;68.40
72905;DHT22;61048;52.162;4.516;2023-10-09T13:09:35;21.00;68.40
72905;DHT22;61048;52.162;4.516;2023-10-09T13:12:08;21.00;68.30
72905;DHT22;61048;52.162;4.516;2023-10-09T13:14:35;21.00;68.30
72905;DHT22;61048;52.162;4.516;2023-10-09T13:17:04;21.00;68.30
72905;DHT22;61048;52.162;4.516;2023-10-09T13:19:35;21.00;68.30
72905;DHT22;61048;52.162;4.516;2023-10-09T13:22:02;21.00;68.40
72905;DHT22;61048;52.162;4.516;2023-10-09T13:24:38;21.00;68.40
72905;DHT22;61048;52.162;4.516;2023-10-09T13:27:05;21.00;68.30
72905;DHT22;61048;52.162;4.516;2023-10-09T13:29:36;21.00;68.40
72905;DHT22;61048;52.162;4.516;2023-10-09T13:32:07;21.10;68.30
72905;DHT22;61048;52.162;4.516;2023-10-09T13:34:39;21.00;68.30
72905;DHT22;61048;52.162;4.516;2023-10-09T13:37:10;21.00;68.30
72905;DHT22;61048;52.162;4.516;2023-10-09T13:39:39;21.10;68.30
72905;DHT22;61048;52.162;4.516;2023-10-09T13:42:17;21.10;68.30
72905;DHT22;61048;52.162;4.516;2023-10-09T13:44:44;21.10;68.30
72905;DHT22;61048;52.162;4.516;2023-10-09T13:47:15;21.10;68.30
72905;DHT22;61048;52.162;4.516;2023-10-09T13:49:46;21.10;68.30
72905;DHT22;61048;52.162;4.516;2023-10-09T13:52:16;21.10;68.40
72905;DHT22;61048;52.162;4.516;2023-10-09T13:54:44;21.10;68.30
72905;DHT22;61048;52.162;4.516;2023-10-09T13:57:14;21.10;68.30
72905;DHT22;61048;52.162;4.516;2023-10-09T13:59:41;21.10;68.40
72905;DHT22;61048;52.162;4.516;2023-10-09T14:02:16;21.10;68.40
72905;DHT22;61048;52.162;4.516;2023-10-09T14:04:44;21.10;68.40
72905;DHT22;61048;52.162;4.516;2023-10-09T14:07:12;21.10;68.40
72905;DHT22;61048;52.162;4.516;2023-10-09T14:09:42;21.10;68.40
72905;DHT22;61048;52.162;4.516;2023-10-09T14:12:21;21.10;68.30
72905;DHT22;61048;52.162;4.516;2023-10-09T14:14:51;21.10;68.40
72905;DHT22;61048;52.162;4.516;2023-10-09T14:17:21;21.10;68.40
72905;DHT22;61048;52.162;4.516;2023-10-09T14:19:52;21.10;68.30
72905;DHT22;61048;52.162;4.516;2023-10-09T14:22:20;21.10;68.40
72905;DHT22;61048;52.162;4.516;2023-10-09T14:24:50;21.10;68.40
72905;DHT22;61048;52.162;4.516;2023-10-09T14:27:21;21.10;68.30
72905;DHT22;61048;52.162;4.516;2023-10-09T14:29:52;21.10;68.40
72905;DHT22;61048;52.162;4.516;2023-10-09T14:32:23;21.10;68.40
72905;DHT22;61048;52.162;4.516;2023-10-09T14:34:54;21.10;68.40
72905;DHT22;61048;52.162;4.516;2023-10-09T14:37:26;21.10;68.50
72905;DHT22;61048;52.162;4.516;2023-10-09T14:39:53;21.10;68.40
72905;DHT22;61048;52.162;4.516;2023-10-09T14:42:21;21.10;68.40
72905;DHT22;61048;52.162;4.516;2023-10-09T14:44:53;21.10;68.40
72905;DHT22;61048;52.162;4.516;2023-10-09T14:47:21;21.10;68.50
72905;DHT22;61048;52.162;4.516;2023-10-09T14:49:49;21.00;68.50
72905;DHT22;61048;52.162;4.516;2023-10-09T14:52:19;21.10;68.40
72905;DHT22;61048;52.162;4.516;2023-10-09T14:54:47;21.10;68.50
72905;DHT22;61048;52.162;4.516;2023-10-09T14:57:16;21.10;68.50
72905;DHT22;61048;52.162;4.516;2023-10-09T14:59:44;21.10;68.50
72905;DHT22;61048;52.162;4.516;2023-10-09T15:02:11;21.00;68.50
72905;DHT22;61048;52.162;4.516;2023-10-09T15:04:38;21.10;68.50
72905;DHT22;61048;52.162;4.516;2023-10-09T15:07:07;21.00;68.50
72905;DHT22;61048;52.162;4.516;2023-10-09T15:09:34;21.00;68.50
72905;DHT22;61048;52.162;4.516;2023-10-09T15:12:02;21.00;68.50
72905;DHT22;61048;52.162;4.516;2023-10-09T15:14:31;21.10;68.50
72905;DHT22;61048;52.162;4.516;2023-10-09T15:16:59;21.00;68.50
72905;DHT22;61048;52.162;4.516;2023-10-09T15:19:26;21.00;68.50
72905;DHT22;61048;52.162;4.516;2023-10-09T15:21:56;21.00;68.50
72905;DHT22;61048;52.162;4.516;2023-10-09T15:24:26;21.00;68.50
72905;DHT22;61048;52.162;4.516;2023-10-09T15:26:54;21.00;68.50
72905;DHT22;61048;52.162;4.516;2023-10-09T15:29:23;21.00;68.50
72905;DHT22;61048;52.162;4.516;2023-10-09T15:31:54;21.00;68.50
72905;DHT22;61048;52.162;4.516;2023-10-09T15:34:21;21.00;68.50
72905;DHT22;61048;52.162;4.516;2023-10-09T15:36:50;21.00;68.50
72905;DHT22;61048;52.162;4.516;2023-10-09T15:39:19;21.00;68.60
72905;DHT22;61048;52.162;4.516;2023-10-09T15:41:47;21.00;68.60
72905;DHT22;61048;52.162;4.516;2023-10-09T15:44:14;21.00;68.60
72905;DHT22;61048;52.162;4.516;2023-10-09T15:46:42;21.00;68.60
72905;DHT22;61048;52.162;4.516;2023-10-09T15:49:10;21.00;68.60
72905;DHT22;61048;52.162;4.516;2023-10-09T15:51:39;21.00;68.70
72905;DHT22;61048;52.162;4.516;2023-10-09T15:54:09;21.00;68.70
72905;DHT22;61048;52.162;4.516;2023-10-09T15:56:37;21.00;68.70
72905;DHT22;61048;52.162;4.516;2023-10-09T15:59:08;21.00;68.80
72905;DHT22;61048;52.162;4.516;2023-10-09T16:01:37;21.00;68.70
72905;DHT22;61048;52.162;4.516;2023-10-09T16:04:06;21.00;68.80
72905;DHT22;61048;52.162;4.516;2023-10-09T16:06:36;20.90;68.70
72905;DHT22;61048;52.162;4.516;2023-10-09T16:09:05;21.00;68.70
72905;DHT22;61048;52.162;4.516;2023-10-09T16:11:37;21.00;68.70
72905;DHT22;61048;52.162;4.516;2023-10-09T16:14:05;21.00;68.70
72905;DHT22;61048;52.162;4.516;2023-10-09T16:16:37;20.90;68.80